EDDG/FMO METAR and TAF weather

Enter ICAO airport designator
Station Type Date Time Source
EDDG METAR 2020/04/07 03:20 UTC NOAA

EDDG 070320Z VRB01KT 9999 BKN017 10/09 Q1029 TEMPO BKN010


Station Type Date Time Source
EDDG Decoded METAR 2020/04/07 03:20 UTC NOAA

Muenster / Osnabrueck, Germany (EDDG) 52-08N 007-42E 53M
Apr 06, 2020 - 11:20 PM EDT / 2020.04.07 0320 UTC
Wind: Variable at 1 MPH (1 KT):0
Visibility: greater than 7 mile(s):0
Sky conditions: mostly cloudy
Temperature: 50 F (10 C)
Dew Point: 48 F (9 C)
Relative Humidity: 93%
Pressure (altimeter): 30.39 in. Hg (1029 hPa)
ob: EDDG 070320Z VRB01KT 9999 BKN017 10/09 Q1029 TEMPO BKN010
cycle: 3

Station Type Date Time Source
EDDG TAF 2020/04/06 19:35 UTC NOAA

TAF
AMD EDDG 061924Z 0619/0718 24006KT CAVOK
TEMPO 0619/0622 28011KT
BECMG 0700/0703 VRB03KT
TEMPO 0702/0708 4000 BR PROB30
TEMPO 0703/0707 0800 BCFG BKN004
BECMG 0709/0712 09005KT

Example: see airport list